Time;durP1;ratioP1;P1;durP2;ratioP2;P2;SDS_P1;SDS_P2;PMS_P1;PMS_P2;Temp;Humidity;BMP_temperature;BMP_pressure;BME280_temperature;BME280_humidity;BME280_pressure;Samples;Min_cycle;Max_cycle;Signal;HPM_P1;HPM_P2
2022/03/02 00:00:40;;;;;;;17.58;10.07;;;3.40;90.20;;;;;;5033963;28;20021;-49
2022/03/02 00:03:06;;;;;;;15.52;9.88;;;3.30;90.50;;;;;;5033701;28;20053;-49
2022/03/02 00:05:31;;;;;;;17.42;11.63;;;3.30;90.60;;;;;;5032619;28;20171;-48
2022/03/02 00:07:57;;;;;;;18.15;10.00;;;3.30;90.70;;;;;;5032612;28;20378;-47
2022/03/02 00:10:22;;;;;;;14.50;9.27;;;3.30;91.00;;;;;;5033860;28;20043;-51
2022/03/02 00:12:48;;;;;;;22.77;10.10;;;3.20;91.00;;;;;;5033519;28;20075;-53
2022/03/02 00:15:14;;;;;;;14.07;8.93;;;3.20;91.00;;;;;;5033854;28;20025;-51
2022/03/02 00:17:40;;;;;;;18.73;10.50;;;3.30;90.90;;;;;;5033414;28;20031;-49
2022/03/02 00:20:07;;;;;;;18.02;9.73;;;3.30;90.90;;;;;;5033707;28;20504;-50
2022/03/02 00:22:32;;;;;;;15.07;9.93;;;3.30;90.90;;;;;;5033480;28;20104;-49
2022/03/02 00:24:58;;;;;;;19.05;9.77;;;3.30;91.10;;;;;;5033309;28;20123;-49
2022/03/02 00:27:23;;;;;;;13.63;9.52;;;3.20;91.10;;;;;;5033788;28;20033;-49
2022/03/02 00:29:50;;;;;;;19.25;10.30;;;3.20;91.20;;;;;;5032599;28;20104;-48
2022/03/02 00:32:16;;;;;;;16.85;11.73;;;3.10;91.30;;;;;;5033391;28;20034;-49
2022/03/02 00:34:42;;;;;;;15.38;9.80;;;3.00;91.50;;;;;;5033437;28;20028;-54
2022/03/02 00:37:07;;;;;;;15.13;9.38;;;3.00;91.60;;;;;;5033335;28;20021;-55
2022/03/02 00:39:34;;;;;;;16.27;9.95;;;3.00;91.70;;;;;;5033655;28;20030;-50
2022/03/02 00:41:59;;;;;;;15.57;9.65;;;2.90;91.80;;;;;;5033488;28;20053;-46
2022/03/02 00:44:25;;;;;;;20.38;10.57;;;2.90;92.00;;;;;;5033112;28;20053;-54
2022/03/02 00:46:51;;;;;;;15.10;9.23;;;2.90;92.20;;;;;;5033383;28;20025;-47
2022/03/02 00:49:16;;;;;;;22.75;10.18;;;2.80;92.40;;;;;;5033274;28;20025;-49
2022/03/02 00:51:42;;;;;;;26.27;9.75;;;2.80;92.60;;;;;;5033112;28;20155;-48
2022/03/02 00:54:09;;;;;;;16.15;9.45;;;2.70;92.80;;;;;;5032765;28;20116;-48
2022/03/02 00:56:34;;;;;;;14.18;9.27;;;2.60;93.00;;;;;;5033009;28;20037;-49
2022/03/02 00:59:00;;;;;;;16.75;10.07;;;2.60;93.20;;;;;;5032981;28;20033;-49
2022/03/02 01:01:25;;;;;;;16.63;10.07;;;2.60;93.40;;;;;;5032926;28;20040;-52
2022/03/02 01:03:51;;;;;;;16.05;10.48;;;2.60;93.50;;;;;;5032699;28;20076;-48
2022/03/02 01:06:17;;;;;;;20.73;11.00;;;2.50;93.70;;;;;;5031598;28;20032;-48
2022/03/02 01:08:43;;;;;;;15.23;9.18;;;2.50;93.90;;;;;;5032797;28;20440;-48
2022/03/02 01:11:09;;;;;;;19.88;10.70;;;2.50;93.90;;;;;;5032746;28;20037;-50
2022/03/02 01:13:34;;;;;;;22.95;10.38;;;2.50;94.00;;;;;;5032460;28;20041;-51
2022/03/02 01:16:00;;;;;;;16.65;10.65;;;2.50;94.20;;;;;;5032704;28;20029;-50
2022/03/02 01:18:26;;;;;;;16.80;10.65;;;2.40;94.30;;;;;;5032244;28;20112;-50
2022/03/02 01:20:52;;;;;;;19.13;11.02;;;2.60;97.30;;;;;;5032398;28;20028;-52
2022/03/02 01:23:17;;;;;;;17.02;11.15;;;2.50;96.40;;;;;;5032206;28;20029;-46
2022/03/02 01:25:43;;;;;;;17.08;10.73;;;2.50;98.30;;;;;;5032466;28;20123;-51
2022/03/02 01:28:08;;;;;;;16.73;10.30;;;2.40;94.90;;;;;;5032411;28;20071;-54
2022/03/02 01:30:34;;;;;;;23.05;10.95;;;2.40;95.00;;;;;;5032417;28;20025;-54
2022/03/02 01:33:00;;;;;;;22.33;10.63;;;2.30;95.00;;;;;;5030767;28;20242;-48
2022/03/02 01:35:25;;;;;;;20.05;11.55;;;2.30;95.20;;;;;;5032077;28;20034;-52
2022/03/02 01:37:51;;;;;;;16.63;11.80;;;2.30;95.60;;;;;;5032228;28;20028;-53
2022/03/02 01:40:16;;;;;;;19.33;10.27;;;2.30;95.40;;;;;;5032147;28;20109;-52
2022/03/02 01:42:43;;;;;;;18.77;10.98;;;2.30;95.50;;;;;;5031924;28;20485;-49
2022/03/02 01:45:11;;;;;;;18.00;11.18;;;2.20;95.70;;;;;;5032094;28;20025;-49
2022/03/02 01:47:37;;;;;;;18.35;11.00;;;2.20;96.00;;;;;;5032149;28;20393;-51
2022/03/02 01:50:05;;;;;;;18.23;10.43;;;2.20;96.30;;;;;;5031695;28;20036;-49
2022/03/02 01:52:31;;;;;;;21.77;11.38;;;2.20;96.10;;;;;;5031880;28;20028;-50
2022/03/02 01:54:56;;;;;;;18.30;11.48;;;2.30;96.20;;;;;;5031757;28;20395;-49
2022/03/02 01:57:22;;;;;;;16.13;10.85;;;2.20;96.30;;;;;;5031856;28;20477;-50
2022/03/02 01:59:48;;;;;;;21.10;12.63;;;2.20;96.50;;;;;;5031855;28;20044;-50
2022/03/02 02:02:13;;;;;;;15.68;9.98;;;2.10;96.80;;;;;;5031707;28;20026;-48
2022/03/02 02:04:39;;;;;;;17.92;10.82;;;2.10;96.60;;;;;;5031426;28;20025;-46
2022/03/02 02:07:04;;;;;;;16.98;10.73;;;2.00;96.80;;;;;;5031851;28;20077;-48
2022/03/02 02:09:30;;;;;;;17.55;11.93;;;1.90;96.60;;;;;;5031657;28;20154;-48
2022/03/02 02:11:56;;;;;;;19.58;11.23;;;1.90;97.00;;;;;;5031591;28;20021;-49
2022/03/02 02:14:22;;;;;;;15.95;10.45;;;1.90;97.10;;;;;;5031397;28;20037;-48
2022/03/02 02:16:47;;;;;;;18.63;11.90;;;1.90;97.10;;;;;;5031144;28;20029;-47
2022/03/02 02:19:13;;;;;;;17.30;11.25;;;1.90;97.20;;;;;;5031439;28;20028;-51
2022/03/02 02:21:39;;;;;;;19.30;11.30;;;1.90;97.40;;;;;;5031540;28;20022;-48
2022/03/02 02:24:05;;;;;;;18.88;11.23;;;1.80;97.50;;;;;;5031147;28;20531;-48
2022/03/02 02:26:30;;;;;;;15.65;10.70;;;1.80;97.40;;;;;;5031460;28;20485;-46
2022/03/02 02:28:56;;;;;;;16.55;11.68;;;1.80;97.50;;;;;;5031571;28;20029;-47
2022/03/02 02:31:22;;;;;;;16.55;10.95;;;1.70;97.70;;;;;;5031336;28;20021;-51
2022/03/02 02:33:48;;;;;;;18.88;11.63;;;1.70;97.80;;;;;;5031034;28;20098;-49
2022/03/02 02:36:14;;;;;;;19.02;10.73;;;1.70;98.10;;;;;;5030251;28;20022;-49
2022/03/02 02:38:41;;;;;;;18.92;10.50;;;1.60;98.30;;;;;;5031376;28;20034;-50
2022/03/02 02:41:07;;;;;;;18.15;10.93;;;1.60;98.40;;;;;;5030016;28;20080;-49
2022/03/02 02:43:32;;;;;;;18.02;10.32;;;1.70;98.40;;;;;;5031019;28;20033;-48
2022/03/02 02:45:58;;;;;;;19.05;10.23;;;1.80;98.20;;;;;;5031335;28;20469;-49
2022/03/02 02:48:23;;;;;;;14.00;10.07;;;1.90;98.20;;;;;;5029954;28;20026;-50
2022/03/02 02:50:49;;;;;;;18.92;12.32;;;1.90;98.10;;;;;;5029934;28;20017;-50
2022/03/02 02:53:16;;;;;;;18.73;10.75;;;1.90;98.10;;;;;;5030607;28;20349;-50
2022/03/02 02:55:43;;;;;;;16.42;10.55;;;1.90;98.10;;;;;;5035342;28;20501;-48
2022/03/02 02:58:09;;;;;;;18.92;11.00;;;1.90;98.20;;;;;;5035195;28;20026;-49
2022/03/02 03:00:38;;;;;;;18.38;11.07;;;2.00;98.20;;;;;;5035006;28;20100;-50
2022/03/02 03:03:04;;;;;;;16.15;10.98;;;1.90;98.20;;;;;;5034728;28;20025;-52
2022/03/02 03:05:31;;;;;;;16.58;10.70;;;1.90;98.20;;;;;;5035027;28;20096;-50
2022/03/02 03:08:00;;;;;;;18.55;11.32;;;1.90;98.20;;;;;;5035048;28;20500;-48
2022/03/02 03:10:27;;;;;;;19.35;11.00;;;1.90;98.10;;;;;;5033597;28;20025;-48
2022/03/02 03:12:53;;;;;;;16.25;10.88;;;2.00;98.10;;;;;;5034336;28;20455;-50
2022/03/02 03:15:20;;;;;;;16.88;11.20;;;2.00;98.10;;;;;;5034827;28;20116;-50
2022/03/02 03:17:46;;;;;;;14.38;9.20;;;2.00;98.00;;;;;;5034586;28;20100;-50
2022/03/02 03:20:14;;;;;;;17.55;11.30;;;1.90;98.00;;;;;;5034707;28;20452;-47
2022/03/02 03:22:40;;;;;;;16.25;11.38;;;1.90;98.10;;;;;;5034467;28;20057;-48
2022/03/02 03:25:07;;;;;;;17.65;10.18;;;1.90;98.10;;;;;;5033275;28;20033;-48
2022/03/02 03:27:33;;;;;;;19.90;11.57;;;1.90;98.20;;;;;;5034693;28;20366;-48
2022/03/02 03:29:58;;;;;;;19.70;11.73;;;2.00;98.20;;;;;;5034520;28;20021;-50
2022/03/02 03:32:24;;;;;;;16.48;10.13;;;2.00;98.20;;;;;;5034524;28;20033;-50
2022/03/02 03:34:49;;;;;;;17.65;10.18;;;2.00;98.10;;;;;;5032931;28;20028;-46
2022/03/02 03:37:15;;;;;;;21.20;10.85;;;2.00;98.10;;;;;;5033177;28;20078;-50
2022/03/02 03:39:42;;;;;;;16.15;10.70;;;1.90;98.20;;;;;;5034353;28;20034;-49
2022/03/02 03:42:08;;;;;;;17.77;11.00;;;1.90;98.30;;;;;;5034576;28;20370;-53
2022/03/02 03:44:34;;;;;;;16.27;10.30;;;1.90;98.30;;;;;;5034384;28;20021;-49
2022/03/02 03:46:59;;;;;;;15.68;10.50;;;1.90;98.30;;;;;;5034410;28;20025;-49
2022/03/02 03:49:25;;;;;;;15.90;10.38;;;1.80;98.40;;;;;;5032835;28;20405;-48
2022/03/02 03:51:50;;;;;;;15.27;10.52;;;1.80;98.50;;;;;;5034227;28;20017;-50
2022/03/02 03:54:16;;;;;;;16.23;10.23;;;1.80;98.50;;;;;;5033727;28;20488;-49
2022/03/02 03:56:42;;;;;;;16.45;10.95;;;1.90;98.70;;;;;;5032877;28;20503;-49
2022/03/02 03:59:08;;;;;;;18.15;10.50;;;1.90;98.50;;;;;;5032755;28;20535;-50
2022/03/02 04:01:34;;;;;;;16.15;10.77;;;1.90;98.50;;;;;;5034000;28;20052;-49
2022/03/02 04:03:59;;;;;;;16.40;11.25;;;1.80;98.50;;;;;;5033392;28;20021;-49
2022/03/02 04:06:25;;;;;;;14.77;9.80;;;1.90;98.50;;;;;;5031751;28;20079;-48
2022/03/02 04:08:50;;;;;;;15.80;9.70;;;1.80;98.50;;;;;;5033832;28;20033;-55
2022/03/02 04:11:16;;;;;;;19.58;10.93;;;1.80;98.50;;;;;;5033829;28;20396;-49
2022/03/02 04:13:42;;;;;;;19.55;10.05;;;1.80;98.50;;;;;;5042213;23;20249;-46
2022/03/02 04:16:07;;;;;;;17.88;10.10;;;1.80;98.50;;;;;;5014030;28;20067;-42
2022/03/02 04:18:33;;;;;;;16.05;10.82;;;1.90;98.50;;;;;;5012583;28;20021;-45
2022/03/02 04:20:59;;;;;;;20.70;10.18;;;1.80;98.60;;;;;;5014540;28;20441;-49
2022/03/02 04:23:25;;;;;;;15.38;10.43;;;1.80;98.70;;;;;;5013458;28;20164;-49
2022/03/02 04:25:50;;;;;;;13.07;9.68;;;1.80;98.60;;;;;;5013967;28;20060;-39
2022/03/02 04:28:16;;;;;;;17.13;10.48;;;1.70;98.80;;;;;;5013718;28;20030;-45
2022/03/02 04:30:42;;;;;;;16.83;9.77;;;1.70;98.80;;;;;;5013759;28;20600;-45
2022/03/02 04:33:07;;;;;;;17.95;10.43;;;1.70;99.10;;;;;;5013423;28;20037;-48
2022/03/02 04:35:34;;;;;;;17.75;11.20;;;1.70;98.90;;;;;;5013602;28;20069;-39
2022/03/02 04:38:00;;;;;;;14.77;10.43;;;1.80;98.80;;;;;;5013609;28;20026;-48
2022/03/02 04:40:25;;;;;;;15.95;9.82;;;1.70;98.80;;;;;;5013555;28;20099;-43
2022/03/02 04:42:51;;;;;;;19.55;12.27;;;1.70;98.80;;;;;;5013181;28;20060;-44
2022/03/02 04:45:17;;;;;;;16.73;11.40;;;1.70;98.90;;;;;;5013557;28;20022;-46
2022/03/02 04:47:43;;;;;;;14.65;9.85;;;1.70;98.90;;;;;;5013290;28;20022;-48
2022/03/02 04:50:11;;;;;;;17.30;10.85;;;1.60;99.20;;;;;;5013214;28;20097;-44
2022/03/02 04:52:36;;;;;;;18.02;10.25;;;1.60;99.20;;;;;;5013266;28;20022;-45
2022/03/02 04:55:05;;;;;;;14.07;10.30;;;1.60;99.20;;;;;;5012938;28;20029;-38
2022/03/02 04:57:35;;;;;;;12.95;9.82;;;1.60;99.10;;;;;;5013229;28;20109;-42
2022/03/02 05:00:00;;;;;;;15.60;10.35;;;1.60;99.20;;;;;;5013160;28;20033;-44
2022/03/02 05:02:26;;;;;;;24.77;10.02;;;1.70;99.10;;;;;;5012945;28;20787;-43
2022/03/02 05:04:52;;;;;;;16.83;9.68;;;1.70;99.00;;;;;;5012849;28;20025;-44
2022/03/02 05:07:17;;;;;;;18.52;11.23;;;1.70;99.20;;;;;;5013265;28;20057;-40
2022/03/02 05:09:46;;;;;;;13.70;9.93;;;1.60;99.10;;;;;;5012988;28;20030;-45
2022/03/02 05:12:11;;;;;;;16.65;9.88;;;1.60;99.50;;;;;;5013059;28;20026;-43
2022/03/02 05:14:37;;;;;;;15.77;10.00;;;1.60;99.50;;;;;;5012572;28;20490;-47
2022/03/02 05:17:03;;;;;;;15.40;10.52;;;1.60;99.60;;;;;;5012310;28;20048;-42
2022/03/02 05:19:28;;;;;;;18.25;10.90;;;1.60;99.70;;;;;;5012871;28;20034;-46
2022/03/02 05:21:54;;;;;;;15.65;9.90;;;1.50;99.90;;;;;;5012987;28;20022;-48
2022/03/02 05:24:19;;;;;;;17.65;11.02;;;1.50;99.80;;;;;;5012770;28;20468;-46
2022/03/02 05:26:45;;;;;;;15.70;10.23;;;1.50;99.90;;;;;;5012766;28;20026;-46
2022/03/02 05:29:11;;;;;;;14.85;9.80;;;1.50;99.90;;;;;;5011603;28;20022;-47
2022/03/02 05:31:36;;;;;;;17.15;10.15;;;1.50;99.90;;;;;;5012545;28;20080;-46
2022/03/02 05:34:02;;;;;;;18.58;10.30;;;1.50;99.90;;;;;;5012359;28;20076;-45
2022/03/02 05:36:28;;;;;;;18.25;11.02;;;1.60;99.80;;;;;;5012575;28;20030;-40
2022/03/02 05:38:53;;;;;;;26.50;10.45;;;1.60;99.90;;;;;;5012636;28;20030;-49
2022/03/02 05:41:20;;;;;;;14.05;9.80;;;1.60;99.80;;;;;;5011102;28;20057;-50
2022/03/02 05:43:46;;;;;;;18.55;9.68;;;1.60;99.40;;;;;;5011871;28;20041;-46
2022/03/02 05:46:11;;;;;;;17.75;10.20;;;1.70;99.40;;;;;;5012488;28;20390;-48
2022/03/02 05:48:37;;;;;;;16.25;10.55;;;1.60;99.40;;;;;;5012137;28;20397;-42
2022/03/02 05:51:03;;;;;;;16.25;10.30;;;1.60;99.30;;;;;;5012315;28;20101;-49
2022/03/02 05:53:29;;;;;;;13.75;10.52;;;1.60;99.70;;;;;;5010637;28;20528;-47
2022/03/02 05:55:54;;;;;;;23.02;10.60;;;1.60;99.40;;;;;;5012160;28;20030;-46
2022/03/02 05:58:20;;;;;;;14.48;9.88;;;1.70;99.40;;;;;;5012076;28;20022;-47
2022/03/02 06:00:45;;;;;;;19.30;10.73;;;1.80;99.30;;;;;;5011919;28;20030;-49
2022/03/02 06:03:11;;;;;;;17.45;9.15;;;1.90;99.00;;;;;;5011706;28;20030;-47
2022/03/02 06:05:36;;;;;;;11.82;9.13;;;1.80;98.90;;;;;;5012243;28;20018;-43
2022/03/02 06:08:02;;;;;;;16.70;11.43;;;1.80;99.30;;;;;;5012181;28;20041;-46
2022/03/02 06:10:28;;;;;;;17.13;9.65;;;1.80;99.40;;;;;;5011835;28;20447;-49
2022/03/02 06:12:54;;;;;;;17.50;9.27;;;1.80;99.40;;;;;;5010270;28;20038;-48
2022/03/02 06:15:19;;;;;;;13.10;9.20;;;1.70;99.20;;;;;;5012014;28;20030;-46
2022/03/02 06:17:45;;;;;;;18.65;10.98;;;1.70;99.10;;;;;;5011635;28;20409;-47
2022/03/02 06:20:11;;;;;;;14.13;9.32;;;1.90;99.20;;;;;;5012345;28;20026;-46
2022/03/02 06:22:37;;;;;;;13.40;8.93;;;1.80;99.00;;;;;;5010865;28;20044;-48
2022/03/02 06:25:06;;;;;;;15.07;9.10;;;1.80;98.80;;;;;;5012277;28;20022;-44
2022/03/02 06:27:33;;;;;;;14.15;9.65;;;1.90;98.90;;;;;;5011450;28;20026;-47
2022/03/02 06:29:58;;;;;;;13.27;8.63;;;1.90;98.70;;;;;;5012300;28;20101;-48
2022/03/02 06:32:24;;;;;;;15.10;9.68;;;1.90;98.80;;;;;;5012535;28;20057;-50
2022/03/02 06:34:50;;;;;;;15.73;10.40;;;1.90;98.90;;;;;;5011970;28;20097;-46
2022/03/02 06:37:16;;;;;;;13.27;9.07;;;1.80;98.80;;;;;;5012176;28;20101;-46
2022/03/02 06:39:42;;;;;;;16.27;9.27;;;1.90;99.00;;;;;;5011058;28;20070;-46
2022/03/02 06:42:21;;;;;;;14.68;9.77;;;1.80;98.90;;;;;;5012716;28;20022;-46
2022/03/02 06:44:55;;;;;;;15.50;10.18;;;1.80;99.00;;;;;;5012041;28;20084;-44
2022/03/02 06:47:31;;;;;;;17.85;9.32;;;1.80;99.10;;;;;;5011365;28;20092;-46
2022/03/02 06:50:03;;;;;;;14.70;9.32;;;1.80;99.30;;;;;;5012110;28;20105;-44
2022/03/02 06:52:38;;;;;;;16.23;9.38;;;1.70;99.40;;;;;;5011892;28;20446;-46
2022/03/02 06:55:16;;;;;;;20.27;9.82;;;1.70;99.40;;;;;;5012018;28;20030;-50
2022/03/02 06:57:45;;;;;;;17.02;9.95;;;1.70;99.50;;;;;;5011633;28;20079;-46
2022/03/02 07:00:16;;;;;;;18.73;9.68;;;1.70;99.50;;;;;;5011363;28;20405;-41
2022/03/02 07:02:47;;;;;;;17.00;9.90;;;1.80;99.50;;;;;;5011224;28;20505;-45
2022/03/02 07:05:13;;;;;;;18.50;10.10;;;1.80;99.20;;;;;;5011514;28;20018;-49
2022/03/02 07:07:39;;;;;;;17.95;9.70;;;1.80;99.30;;;;;;5010380;28;20317;-52
2022/03/02 07:10:07;;;;;;;13.25;9.30;;;1.90;99.10;;;;;;4998700;28;20019;-46
2022/03/02 07:12:32;;;;;;;18.38;9.48;;;1.90;99.20;;;;;;4991428;28;20030;-44
2022/03/02 07:14:58;;;;;;;18.75;10.73;;;2.00;99.10;;;;;;5010667;28;20034;-49
2022/03/02 07:17:26;;;;;;;15.48;8.93;;;2.00;99.00;;;;;;5010955;28;20033;-49
2022/03/02 07:19:52;;;;;;;15.75;10.13;;;2.10;98.80;;;;;;5005002;28;20018;-48
2022/03/02 07:22:21;;;;;;;13.95;9.32;;;2.10;98.60;;;;;;4998517;28;20040;-46
2022/03/02 07:25:30;;;;;;;17.67;9.75;;;2.20;98.50;;;;;;5010022;28;20026;-46
2022/03/02 07:27:58;;;;;;;13.75;9.07;;;2.20;98.40;;;;;;5009518;28;20050;-47
2022/03/02 07:30:24;;;;;;;11.95;8.98;;;2.30;98.20;;;;;;5011061;28;20708;-48
2022/03/02 07:32:55;;;;;;;14.02;9.68;;;2.50;97.60;;;;;;5006065;28;20509;-50
2022/03/02 07:35:22;;;;;;;17.33;9.70;;;2.50;97.50;;;;;;5010627;28;20449;-43
2022/03/02 07:37:47;;;;;;;18.10;9.65;;;2.50;97.40;;;;;;5010713;28;20034;-51
2022/03/02 07:40:14;;;;;;;16.35;8.75;;;2.60;97.90;;;;;;5012657;28;20033;-49
2022/03/02 07:42:40;;;;;;;14.60;9.40;;;2.90;97.30;;;;;;4999875;28;20030;-48
2022/03/02 07:45:06;;;;;;;16.45;9.68;;;2.90;97.50;;;;;;4995846;28;20028;-45
2022/03/02 07:47:32;;;;;;;16.42;10.52;;;3.00;96.60;;;;;;5014189;28;20103;-45
2022/03/02 07:49:58;;;;;;;15.38;10.15;;;3.00;96.50;;;;;;5009364;28;20097;-46
2022/03/02 07:52:29;;;;;;;18.15;8.85;;;2.90;96.30;;;;;;4995023;28;20018;-46
2022/03/02 07:54:59;;;;;;;18.10;9.40;;;2.80;96.50;;;;;;5004084;28;20029;-42
2022/03/02 07:57:25;;;;;;;14.57;9.90;;;2.80;96.90;;;;;;5014224;28;20030;-48
2022/03/02 07:59:52;;;;;;;15.35;9.43;;;2.90;96.90;;;;;;5014140;28;20026;-43
2022/03/02 08:02:20;;;;;;;15.27;10.07;;;2.90;96.70;;;;;;5013645;28;20437;-48
2022/03/02 08:04:50;;;;;;;13.48;8.85;;;3.00;96.70;;;;;;5013891;28;20057;-41
2022/03/02 08:07:15;;;;;;;14.57;8.50;;;3.00;96.10;;;;;;5014094;28;20402;-47
2022/03/02 08:09:41;;;;;;;19.52;10.45;;;3.00;96.10;;;;;;5012927;28;20075;-50
2022/03/02 08:12:07;;;;;;;15.05;9.55;;;2.90;96.20;;;;;;5014039;28;20133;-52
2022/03/02 08:14:34;;;;;;;13.73;9.27;;;3.00;96.20;;;;;;5013375;28;20417;-45
2022/03/02 08:16:59;;;;;;;14.55;9.48;;;3.00;96.50;;;;;;5013852;28;20371;-46
2022/03/02 08:19:25;;;;;;;13.75;9.25;;;3.20;95.80;;;;;;5013932;28;20080;-51
2022/03/02 08:22:20;;;;;;;16.42;9.02;;;3.20;95.90;;;;;;5013992;28;20029;-46
2022/03/02 08:24:54;;;;;;;14.30;9.38;;;3.40;95.80;;;;;;5013644;28;20028;-48
2022/03/02 08:27:19;;;;;;;13.50;9.02;;;3.40;95.10;;;;;;5013398;28;20049;-42
2022/03/02 08:29:53;;;;;;;16.70;9.38;;;3.30;95.00;;;;;;5013688;28;20062;-48
2022/03/02 08:32:21;;;;;;;13.65;9.13;;;3.30;95.60;;;;;;5014104;28;20030;-49
2022/03/02 08:34:48;;;;;;;15.55;9.15;;;3.40;95.50;;;;;;5013427;28;20037;-49
2022/03/02 08:37:17;;;;;;;12.55;8.52;;;3.60;95.50;;;;;;5013683;28;20033;-47
2022/03/02 08:39:43;;;;;;;14.65;9.35;;;3.60;94.80;;;;;;5013602;28;20507;-48
2022/03/02 08:42:10;;;;;;;12.00;8.38;;;3.60;95.00;;;;;;5013653;28;20398;-49
2022/03/02 08:44:36;;;;;;;12.73;8.70;;;3.70;94.60;;;;;;5013265;28;20030;-44
2022/03/02 08:47:02;;;;;;;15.90;9.07;;;3.70;94.60;;;;;;5013507;28;20026;-45
2022/03/02 08:49:27;;;;;;;12.23;8.43;;;3.60;94.70;;;;;;5013266;28;20017;-48
2022/03/02 08:51:55;;;;;;;12.88;8.52;;;3.70;94.30;;;;;;5012911;28;20026;-47
2022/03/02 08:54:23;;;;;;;15.80;8.48;;;3.80;94.00;;;;;;5013161;28;20026;-46
2022/03/02 08:56:51;;;;;;;14.57;9.18;;;3.80;93.60;;;;;;5013451;28;20037;-46
2022/03/02 08:59:20;;;;;;;14.20;8.90;;;3.80;94.20;;;;;;5015554;28;20022;-46
2022/03/02 09:01:50;;;;;;;15.05;8.52;;;3.80;94.00;;;;;;5015514;28;20036;-45
2022/03/02 09:04:16;;;;;;;11.48;8.75;;;3.70;94.00;;;;;;5015334;28;20402;-46
2022/03/02 09:06:43;;;;;;;15.18;9.05;;;3.80;94.20;;;;;;5014743;28;20041;-47
2022/03/02 09:09:10;;;;;;;16.08;9.20;;;3.80;94.30;;;;;;5013629;28;20056;-48
2022/03/02 09:11:38;;;;;;;11.75;8.05;;;3.80;93.70;;;;;;5013609;28;20022;-46
2022/03/02 09:14:03;;;;;;;14.68;9.15;;;3.90;93.80;;;;;;5013591;28;20109;-49
2022/03/02 09:16:30;;;;;;;20.23;8.68;;;3.90;93.60;;;;;;5014662;28;20120;-46
2022/03/02 09:18:55;;;;;;;12.07;8.02;;;3.90;93.70;;;;;;5013757;28;20030;-50
2022/03/02 09:21:22;;;;;;;13.50;8.30;;;3.90;93.60;;;;;;5012868;28;20026;-40
2022/03/02 09:23:48;;;;;;;12.77;8.10;;;4.00;94.00;;;;;;5013601;28;20026;-45
2022/03/02 09:26:17;;;;;;;12.00;7.88;;;4.10;92.70;;;;;;5012183;28;20060;-45
2022/03/02 09:28:46;;;;;;;12.20;8.35;;;4.10;92.70;;;;;;5013131;28;20026;-45
2022/03/02 09:31:14;;;;;;;14.10;8.77;;;4.10;93.00;;;;;;5013351;28;20080;-45
2022/03/02 09:33:40;;;;;;;10.85;7.97;;;4.20;92.90;;;;;;5013387;28;20022;-39
2022/03/02 09:36:08;;;;;;;11.23;8.70;;;4.20;92.40;;;;;;5013713;28;20083;-50
2022/03/02 09:38:35;;;;;;;12.52;8.50;;;4.10;92.60;;;;;;5013097;28;20030;-44
2022/03/02 09:41:05;;;;;;;13.85;8.73;;;4.10;92.80;;;;;;5017708;28;20018;-44
2022/03/02 09:43:32;;;;;;;13.32;8.82;;;4.20;92.90;;;;;;5013093;28;20124;-48
2022/03/02 09:46:01;;;;;;;14.05;8.65;;;4.30;92.40;;;;;;5012707;28;20026;-40
2022/03/02 09:48:35;;;;;;;11.27;8.27;;;4.30;92.40;;;;;;5011302;28;20026;-44
2022/03/02 09:51:05;;;;;;;16.88;8.70;;;4.30;92.20;;;;;;5012399;28;20022;-45
2022/03/02 09:53:33;;;;;;;11.70;8.50;;;4.40;91.90;;;;;;5012182;28;20105;-47
2022/03/02 09:56:05;;;;;;;12.23;7.60;;;4.40;92.40;;;;;;5012503;28;20488;-40
2022/03/02 09:58:37;;;;;;;16.80;7.47;;;4.30;92.00;;;;;;5012596;28;20178;-40
2022/03/02 10:01:03;;;;;;;13.65;7.72;;;4.40;92.00;;;;;;5012231;28;20049;-46
2022/03/02 10:03:36;;;;;;;10.90;7.88;;;4.40;91.10;;;;;;5009835;28;20029;-45
2022/03/02 10:06:05;;;;;;;12.00;8.13;;;4.40;91.00;;;;;;5012169;28;20038;-46
2022/03/02 10:08:35;;;;;;;14.02;8.27;;;4.40;90.80;;;;;;5012426;28;20390;-47
2022/03/02 10:11:06;;;;;;;9.45;7.32;;;4.30;91.30;;;;;;5012133;28;20026;-40
2022/03/02 10:13:32;;;;;;;10.88;7.68;;;4.30;91.50;;;;;;5032868;23;22082;-49
2022/03/02 10:16:00;;;;;;;14.23;7.95;;;4.30;91.40;;;;;;5012168;28;20461;-48
2022/03/02 10:18:28;;;;;;;13.52;8.65;;;4.30;91.10;;;;;;5010808;28;20121;-47
2022/03/02 10:21:00;;;;;;;12.90;8.75;;;4.30;91.40;;;;;;5011918;28;20504;-48
2022/03/02 10:23:41;;;;;;;10.80;7.75;;;4.30;91.40;;;;;;5010375;28;20493;-48
2022/03/02 10:26:15;;;;;;;15.15;8.82;;;4.40;91.30;;;;;;5011976;28;20030;-50
2022/03/02 10:28:47;;;;;;;12.82;8.00;;;4.40;90.70;;;;;;5010639;28;20022;-48
2022/03/02 10:31:49;;;;;;;20.60;9.80;;;4.40;91.00;;;;;;5011725;28;20036;-49
2022/03/02 10:34:28;;;;;;;15.07;7.75;;;4.40;91.10;;;;;;5011597;28;20026;-48
2022/03/02 10:37:00;;;;;;;12.82;8.30;;;4.50;90.90;;;;;;5010939;28;20025;-46
2022/03/02 10:39:49;;;;;;;14.25;8.45;;;4.60;90.50;;;;;;5008934;28;20032;-51
2022/03/02 10:42:24;;;;;;;16.65;8.82;;;4.60;90.40;;;;;;5009000;28;20072;-49
2022/03/02 10:45:07;;;;;;;15.65;9.57;;;4.60;90.10;;;;;;5010724;28;20109;-49
2022/03/02 10:47:54;;;;;;;10.10;7.68;;;4.50;90.30;;;;;;5007904;28;20383;-48
2022/03/02 10:50:26;;;;;;;14.63;8.15;;;4.50;90.40;;;;;;5010050;28;20390;-47
2022/03/02 10:52:53;;;;;;;14.18;8.52;;;4.60;90.80;;;;;;5008334;28;20018;-50
2022/03/02 10:55:21;;;;;;;12.15;8.73;;;4.60;90.70;;;;;;5007179;28;20069;-51
2022/03/02 10:57:49;;;;;;;20.17;9.85;;;4.60;90.90;;;;;;5011157;28;20029;-49
2022/03/02 11:00:17;;;;;;;11.30;8.30;;;4.70;91.10;;;;;;5011149;28;20050;-52
2022/03/02 11:02:48;;;;;;;15.13;8.43;;;4.80;90.90;;;;;;5011422;28;20033;-53
2022/03/02 11:05:16;;;;;;;12.88;9.18;;;4.80;90.90;;;;;;5011322;28;20026;-52
2022/03/02 11:07:42;;;;;;;11.50;8.90;;;4.90;90.20;;;;;;5010529;28;20037;-52
2022/03/02 11:10:14;;;;;;;14.02;8.70;;;4.90;90.10;;;;;;5010300;28;20418;-47
2022/03/02 11:12:42;;;;;;;16.60;9.00;;;4.90;90.20;;;;;;5008858;28;20018;-50
2022/03/02 11:15:09;;;;;;;12.65;8.68;;;4.90;89.70;;;;;;5011986;28;20036;-49
2022/03/02 11:17:39;;;;;;;12.85;8.93;;;4.90;90.30;;;;;;5012254;28;20033;-50
2022/03/02 11:20:09;;;;;;;13.77;8.48;;;4.90;90.10;;;;;;5014562;28;20021;-55
2022/03/02 11:22:36;;;;;;;12.35;9.23;;;4.90;90.20;;;;;;5016333;28;20022;-52
2022/03/02 11:25:04;;;;;;;11.23;8.50;;;4.90;90.30;;;;;;5014959;28;20101;-49
2022/03/02 11:27:39;;;;;;;13.48;8.40;;;5.00;90.10;;;;;;5015355;28;20389;-52
2022/03/02 11:30:18;;;;;;;12.10;8.85;;;5.10;88.10;;;;;;5014467;28;20034;-51
2022/03/02 11:32:46;;;;;;;13.85;8.93;;;5.10;87.90;;;;;;5006047;28;20030;-48
2022/03/02 11:35:16;;;;;;;15.07;9.05;;;5.10;89.40;;;;;;5010957;28;20497;-52
2022/03/02 11:37:42;;;;;;;16.42;8.93;;;5.30;89.80;;;;;;4995125;28;20042;-50
2022/03/02 11:40:10;;;;;;;13.32;9.40;;;5.30;89.40;;;;;;5002831;28;20366;-49
2022/03/02 11:42:38;;;;;;;12.82;9.32;;;5.30;89.50;;;;;;5014691;28;20516;-51
2022/03/02 11:45:06;;;;;;;17.98;9.50;;;5.40;88.90;;;;;;5014325;28;20565;-53
2022/03/02 11:47:35;;;;;;;16.38;9.02;;;5.40;89.00;;;;;;5014642;28;20095;-49
2022/03/02 11:50:01;;;;;;;12.52;9.35;;;5.30;87.50;;;;;;5014403;28;20393;-50
2022/03/02 11:52:33;;;;;;;14.75;8.95;;;5.30;88.60;;;;;;5014474;28;20029;-53
2022/03/02 11:55:01;;;;;;;15.15;8.68;;;5.30;88.90;;;;;;5014106;28;20017;-49
2022/03/02 11:57:29;;;;;;;13.35;8.45;;;5.40;90.10;;;;;;5004634;28;20027;-52
2022/03/02 12:00:07;;;;;;;12.43;9.02;;;5.60;89.70;;;;;;5032475;28;20029;-49
2022/03/02 12:02:46;;;;;;;13.40;9.10;;;5.70;86.80;;;;;;5026445;28;20029;-47
2022/03/02 12:05:14;;;;;;;16.48;9.05;;;5.70;86.80;;;;;;5014049;28;20030;-51
2022/03/02 12:07:51;;;;;;;16.52;9.70;;;5.70;86.60;;;;;;5013932;28;20075;-55
2022/03/02 12:10:30;;;;;;;15.27;8.80;;;5.70;86.20;;;;;;5011659;28;20037;-46
2022/03/02 12:12:57;;;;;;;13.48;9.65;;;5.80;86.40;;;;;;5010452;28;20033;-51
2022/03/02 12:15:25;;;;;;;13.43;8.52;;;5.80;84.20;;;;;;5013254;28;20034;-58
2022/03/02 12:17:53;;;;;;;11.95;8.40;;;5.80;85.20;;;;;;5023876;28;20099;-55
2022/03/02 12:20:21;;;;;;;12.80;7.78;;;5.90;83.00;;;;;;5017355;28;20029;-61
2022/03/02 12:22:49;;;;;;;14.38;9.35;;;5.90;82.80;;;;;;5012942;28;20145;-51
2022/03/02 12:25:17;;;;;;;17.08;8.63;;;5.90;83.90;;;;;;5013063;28;20042;-50
2022/03/02 12:27:58;;;;;;;15.57;8.90;;;6.00;83.00;;;;;;5012979;28;20021;-52
2022/03/02 12:30:24;;;;;;;16.20;9.00;;;6.00;81.80;;;;;;5013819;28;20033;-50
2022/03/02 12:32:52;;;;;;;10.25;7.43;;;6.10;82.40;;;;;;5014288;28;20026;-43
2022/03/02 12:35:22;;;;;;;11.82;8.18;;;6.20;82.20;;;;;;5013030;28;20069;-51
2022/03/02 12:37:48;;;;;;;16.67;8.05;;;6.30;81.10;;;;;;5012505;28;20021;-45
2022/03/02 12:40:14;;;;;;;16.08;8.48;;;6.40;81.70;;;;;;5013012;28;20026;-47
2022/03/02 12:42:41;;;;;;;9.85;7.55;;;6.40;79.20;;;;;;5012391;28;20076;-54
2022/03/02 12:45:08;;;;;;;12.27;8.82;;;6.50;79.50;;;;;;5011904;28;20472;-44